sensor_id;sensor_type;location;lat;lon;timestamp;P1;durP1;ratioP1;P2;durP2;ratioP2
76626;SDS011;65519;53.230;10.390;2023-02-05T00:00:04;5.70;;;2.63;;
76626;SDS011;65519;53.230;10.390;2023-02-05T00:02:30;5.03;;;3.25;;
76626;SDS011;65519;53.230;10.390;2023-02-05T00:04:55;5.45;;;2.88;;
76626;SDS011;65519;53.230;10.390;2023-02-05T00:07:21;3.90;;;2.50;;
76626;SDS011;65519;53.230;10.390;2023-02-05T00:09:46;6.65;;;3.40;;
76626;SDS011;65519;53.230;10.390;2023-02-05T00:12:12;5.72;;;2.47;;
76626;SDS011;65519;53.230;10.390;2023-02-05T00:14:37;6.50;;;3.05;;
76626;SDS011;65519;53.230;10.390;2023-02-05T00:17:02;3.88;;;2.38;;
76626;SDS011;65519;53.230;10.390;2023-02-05T00:19:28;4.57;;;2.45;;
76626;SDS011;65519;53.230;10.390;2023-02-05T00:21:53;4.00;;;2.22;;
76626;SDS011;65519;53.230;10.390;2023-02-05T00:24:18;4.13;;;2.43;;
76626;SDS011;65519;53.230;10.390;2023-02-05T00:26:44;2.95;;;1.80;;
76626;SDS011;65519;53.230;10.390;2023-02-05T00:29:09;5.35;;;2.42;;
76626;SDS011;65519;53.230;10.390;2023-02-05T00:31:34;6.78;;;2.58;;
76626;SDS011;65519;53.230;10.390;2023-02-05T00:34:00;5.15;;;2.45;;
76626;SDS011;65519;53.230;10.390;2023-02-05T00:36:25;6.38;;;2.80;;
76626;SDS011;65519;53.230;10.390;2023-02-05T00:38:51;4.20;;;2.72;;
76626;SDS011;65519;53.230;10.390;2023-02-05T00:41:17;5.78;;;2.70;;
76626;SDS011;65519;53.230;10.390;2023-02-05T00:43:43;4.07;;;2.30;;
76626;SDS011;65519;53.230;10.390;2023-02-05T00:46:09;4.28;;;2.30;;
76626;SDS011;65519;53.230;10.390;2023-02-05T00:48:35;4.40;;;2.47;;
76626;SDS011;65519;53.230;10.390;2023-02-05T00:51:01;4.72;;;2.42;;
76626;SDS011;65519;53.230;10.390;2023-02-05T00:53:27;4.25;;;2.63;;
76626;SDS011;65519;53.230;10.390;2023-02-05T00:55:53;4.30;;;2.45;;
76626;SDS011;65519;53.230;10.390;2023-02-05T00:58:19;4.07;;;2.75;;
76626;SDS011;65519;53.230;10.390;2023-02-05T01:00:45;3.35;;;2.30;;
76626;SDS011;65519;53.230;10.390;2023-02-05T01:03:11;3.28;;;2.53;;
76626;SDS011;65519;53.230;10.390;2023-02-05T01:05:37;5.75;;;2.83;;
76626;SDS011;65519;53.230;10.390;2023-02-05T01:08:03;4.15;;;2.08;;
76626;SDS011;65519;53.230;10.390;2023-02-05T01:10:30;4.03;;;2.50;;
76626;SDS011;65519;53.230;10.390;2023-02-05T01:12:56;4.68;;;2.00;;
76626;SDS011;65519;53.230;10.390;2023-02-05T01:15:21;3.50;;;2.38;;
76626;SDS011;65519;53.230;10.390;2023-02-05T01:17:47;4.40;;;2.50;;
76626;SDS011;65519;53.230;10.390;2023-02-05T01:20:12;5.03;;;2.13;;
76626;SDS011;65519;53.230;10.390;2023-02-05T01:22:40;4.13;;;2.17;;
76626;SDS011;65519;53.230;10.390;2023-02-05T01:25:06;3.95;;;2.33;;
76626;SDS011;65519;53.230;10.390;2023-02-05T01:27:32;6.25;;;2.28;;
76626;SDS011;65519;53.230;10.390;2023-02-05T01:29:58;4.40;;;2.50;;
76626;SDS011;65519;53.230;10.390;2023-02-05T01:32:24;4.28;;;2.28;;
76626;SDS011;65519;53.230;10.390;2023-02-05T01:34:49;5.28;;;2.85;;
76626;SDS011;65519;53.230;10.390;2023-02-05T01:37:15;6.75;;;2.67;;
76626;SDS011;65519;53.230;10.390;2023-02-05T01:39:40;5.20;;;2.40;;
76626;SDS011;65519;53.230;10.390;2023-02-05T01:42:16;4.07;;;2.30;;
76626;SDS011;65519;53.230;10.390;2023-02-05T01:44:42;3.58;;;2.20;;
76626;SDS011;65519;53.230;10.390;2023-02-05T01:47:08;2.95;;;2.40;;
76626;SDS011;65519;53.230;10.390;2023-02-05T01:49:40;4.03;;;2.55;;
76626;SDS011;65519;53.230;10.390;2023-02-05T01:52:08;3.85;;;1.90;;
76626;SDS011;65519;53.230;10.390;2023-02-05T01:54:38;2.83;;;1.90;;
76626;SDS011;65519;53.230;10.390;2023-02-05T01:57:08;3.35;;;2.30;;
76626;SDS011;65519;53.230;10.390;2023-02-05T01:59:40;4.10;;;2.50;;
76626;SDS011;65519;53.230;10.390;2023-02-05T02:02:07;4.30;;;2.35;;
76626;SDS011;65519;53.230;10.390;2023-02-05T02:07:04;5.30;;;2.10;;
76626;SDS011;65519;53.230;10.390;2023-02-05T02:09:31;5.18;;;2.85;;
76626;SDS011;65519;53.230;10.390;2023-02-05T02:11:58;3.58;;;2.55;;
76626;SDS011;65519;53.230;10.390;2023-02-05T02:14:24;7.10;;;2.95;;
76626;SDS011;65519;53.230;10.390;2023-02-05T02:16:52;6.45;;;2.42;;
76626;SDS011;65519;53.230;10.390;2023-02-05T02:19:25;5.20;;;2.42;;
76626;SDS011;65519;53.230;10.390;2023-02-05T02:32:53;3.45;;;2.60;;
76626;SDS011;65519;53.230;10.390;2023-02-05T02:38:15;6.70;;;2.75;;
76626;SDS011;65519;53.230;10.390;2023-02-05T02:40:50;4.85;;;2.30;;
76626;SDS011;65519;53.230;10.390;2023-02-05T02:43:25;5.05;;;2.40;;
76626;SDS011;65519;53.230;10.390;2023-02-05T02:46:02;3.70;;;2.33;;
76626;SDS011;65519;53.230;10.390;2023-02-05T02:48:37;3.63;;;2.30;;
76626;SDS011;65519;53.230;10.390;2023-02-05T02:51:06;4.25;;;2.20;;
76626;SDS011;65519;53.230;10.390;2023-02-05T02:53:39;5.57;;;2.40;;
76626;SDS011;65519;53.230;10.390;2023-02-05T02:56:06;3.55;;;2.28;;
76626;SDS011;65519;53.230;10.390;2023-02-05T02:58:46;7.28;;;2.55;;
76626;SDS011;65519;53.230;10.390;2023-02-05T03:01:16;6.00;;;2.35;;
76626;SDS011;65519;53.230;10.390;2023-02-05T03:03:46;6.97;;;2.80;;
76626;SDS011;65519;53.230;10.390;2023-02-05T03:06:18;3.55;;;1.90;;
76626;SDS011;65519;53.230;10.390;2023-02-05T03:11:13;5.15;;;2.35;;
76626;SDS011;65519;53.230;10.390;2023-02-05T03:13:40;4.10;;;2.75;;
76626;SDS011;65519;53.230;10.390;2023-02-05T03:16:07;4.90;;;2.33;;
76626;SDS011;65519;53.230;10.390;2023-02-05T03:18:33;4.57;;;2.95;;
76626;SDS011;65519;53.230;10.390;2023-02-05T03:21:00;4.90;;;2.22;;
76626;SDS011;65519;53.230;10.390;2023-02-05T03:23:29;3.17;;;2.25;;
76626;SDS011;65519;53.230;10.390;2023-02-05T03:25:56;6.68;;;2.80;;
76626;SDS011;65519;53.230;10.390;2023-02-05T03:28:21;4.13;;;2.28;;
76626;SDS011;65519;53.230;10.390;2023-02-05T03:34:05;4.22;;;2.53;;
76626;SDS011;65519;53.230;10.390;2023-02-05T03:42:53;5.65;;;2.58;;
76626;SDS011;65519;53.230;10.390;2023-02-05T03:53:54;5.85;;;2.85;;
76626;SDS011;65519;53.230;10.390;2023-02-05T03:56:33;5.88;;;2.60;;
76626;SDS011;65519;53.230;10.390;2023-02-05T03:59:09;3.50;;;2.33;;
76626;SDS011;65519;53.230;10.390;2023-02-05T04:01:37;8.73;;;3.22;;
76626;SDS011;65519;53.230;10.390;2023-02-05T04:04:03;5.68;;;2.95;;
76626;SDS011;65519;53.230;10.390;2023-02-05T04:06:29;5.50;;;2.90;;
76626;SDS011;65519;53.230;10.390;2023-02-05T04:08:54;5.13;;;2.73;;
76626;SDS011;65519;53.230;10.390;2023-02-05T04:11:19;4.88;;;2.65;;
76626;SDS011;65519;53.230;10.390;2023-02-05T04:13:44;5.93;;;2.83;;
76626;SDS011;65519;53.230;10.390;2023-02-05T04:16:10;5.47;;;2.53;;
76626;SDS011;65519;53.230;10.390;2023-02-05T04:18:35;3.17;;;2.30;;
76626;SDS011;65519;53.230;10.390;2023-02-05T04:21:01;5.73;;;2.90;;
76626;SDS011;65519;53.230;10.390;2023-02-05T04:23:26;3.45;;;2.83;;
76626;SDS011;65519;53.230;10.390;2023-02-05T04:25:52;5.95;;;2.80;;
76626;SDS011;65519;53.230;10.390;2023-02-05T04:28:18;4.47;;;2.70;;
76626;SDS011;65519;53.230;10.390;2023-02-05T04:30:43;4.97;;;2.80;;
76626;SDS011;65519;53.230;10.390;2023-02-05T04:33:09;6.30;;;2.88;;
76626;SDS011;65519;53.230;10.390;2023-02-05T04:35:34;5.20;;;2.97;;
76626;SDS011;65519;53.230;10.390;2023-02-05T04:37:59;4.68;;;2.42;;
76626;SDS011;65519;53.230;10.390;2023-02-05T04:40:25;4.38;;;2.70;;
76626;SDS011;65519;53.230;10.390;2023-02-05T04:42:50;4.72;;;2.72;;
76626;SDS011;65519;53.230;10.390;2023-02-05T04:45:15;6.00;;;3.08;;
76626;SDS011;65519;53.230;10.390;2023-02-05T04:47:41;4.18;;;2.42;;
76626;SDS011;65519;53.230;10.390;2023-02-05T04:50:06;5.85;;;3.00;;
76626;SDS011;65519;53.230;10.390;2023-02-05T04:52:32;7.32;;;2.95;;
76626;SDS011;65519;53.230;10.390;2023-02-05T04:54:57;4.43;;;2.42;;
76626;SDS011;65519;53.230;10.390;2023-02-05T04:57:22;4.78;;;2.40;;
76626;SDS011;65519;53.230;10.390;2023-02-05T04:59:48;5.47;;;2.83;;
76626;SDS011;65519;53.230;10.390;2023-02-05T05:02:14;7.30;;;3.50;;
76626;SDS011;65519;53.230;10.390;2023-02-05T05:04:39;6.95;;;2.70;;
76626;SDS011;65519;53.230;10.390;2023-02-05T05:07:04;5.13;;;3.10;;
76626;SDS011;65519;53.230;10.390;2023-02-05T05:09:30;5.13;;;2.90;;
76626;SDS011;65519;53.230;10.390;2023-02-05T05:11:55;7.68;;;2.95;;
76626;SDS011;65519;53.230;10.390;2023-02-05T05:14:21;7.00;;;3.58;;
76626;SDS011;65519;53.230;10.390;2023-02-05T05:16:47;9.00;;;3.08;;
76626;SDS011;65519;53.230;10.390;2023-02-05T05:19:13;9.70;;;3.50;;
76626;SDS011;65519;53.230;10.390;2023-02-05T05:21:39;5.80;;;3.60;;
76626;SDS011;65519;53.230;10.390;2023-02-05T05:24:04;5.80;;;2.90;;
76626;SDS011;65519;53.230;10.390;2023-02-05T05:26:30;5.65;;;2.95;;
76626;SDS011;65519;53.230;10.390;2023-02-05T05:28:55;4.60;;;2.90;;
76626;SDS011;65519;53.230;10.390;2023-02-05T05:31:22;5.53;;;2.95;;
76626;SDS011;65519;53.230;10.390;2023-02-05T05:33:48;6.47;;;3.30;;
76626;SDS011;65519;53.230;10.390;2023-02-05T05:36:14;5.78;;;3.83;;
76626;SDS011;65519;53.230;10.390;2023-02-05T05:38:40;7.93;;;3.92;;
76626;SDS011;65519;53.230;10.390;2023-02-05T05:41:05;6.45;;;3.75;;
76626;SDS011;65519;53.230;10.390;2023-02-05T05:43:53;5.53;;;3.38;;
76626;SDS011;65519;53.230;10.390;2023-02-05T05:46:23;8.27;;;2.97;;
76626;SDS011;65519;53.230;10.390;2023-02-05T05:48:50;8.50;;;3.13;;
76626;SDS011;65519;53.230;10.390;2023-02-05T05:51:17;5.07;;;2.90;;
76626;SDS011;65519;53.230;10.390;2023-02-05T05:53:43;5.07;;;3.05;;
76626;SDS011;65519;53.230;10.390;2023-02-05T05:56:09;6.45;;;3.15;;
76626;SDS011;65519;53.230;10.390;2023-02-05T05:58:35;5.25;;;3.22;;
76626;SDS011;65519;53.230;10.390;2023-02-05T06:01:00;10.70;;;3.45;;
76626;SDS011;65519;53.230;10.390;2023-02-05T06:03:26;6.20;;;3.22;;
76626;SDS011;65519;53.230;10.390;2023-02-05T06:05:51;5.13;;;3.13;;
76626;SDS011;65519;53.230;10.390;2023-02-05T06:08:17;5.35;;;3.15;;
76626;SDS011;65519;53.230;10.390;2023-02-05T06:10:42;8.73;;;3.25;;
76626;SDS011;65519;53.230;10.390;2023-02-05T06:13:08;7.25;;;3.20;;
76626;SDS011;65519;53.230;10.390;2023-02-05T06:15:34;5.80;;;3.38;;
76626;SDS011;65519;53.230;10.390;2023-02-05T06:17:59;6.43;;;3.30;;
76626;SDS011;65519;53.230;10.390;2023-02-05T06:20:25;4.85;;;2.92;;
76626;SDS011;65519;53.230;10.390;2023-02-05T06:22:50;7.32;;;3.70;;
76626;SDS011;65519;53.230;10.390;2023-02-05T06:25:16;6.68;;;3.80;;
76626;SDS011;65519;53.230;10.390;2023-02-05T06:27:42;7.28;;;3.92;;
76626;SDS011;65519;53.230;10.390;2023-02-05T06:30:07;6.85;;;3.28;;
76626;SDS011;65519;53.230;10.390;2023-02-05T06:32:34;8.63;;;3.70;;
76626;SDS011;65519;53.230;10.390;2023-02-05T06:34:59;6.40;;;3.50;;
76626;SDS011;65519;53.230;10.390;2023-02-05T06:37:24;12.13;;;6.07;;
76626;SDS011;65519;53.230;10.390;2023-02-05T06:39:52;9.52;;;5.70;;
76626;SDS011;65519;53.230;10.390;2023-02-05T06:42:18;7.55;;;3.63;;
76626;SDS011;65519;53.230;10.390;2023-02-05T06:44:43;7.23;;;3.30;;
76626;SDS011;65519;53.230;10.390;2023-02-05T06:47:09;7.22;;;3.88;;
76626;SDS011;65519;53.230;10.390;2023-02-05T06:49:34;6.90;;;3.58;;
76626;SDS011;65519;53.230;10.390;2023-02-05T06:51:59;7.47;;;3.72;;
76626;SDS011;65519;53.230;10.390;2023-02-05T06:54:25;5.57;;;3.42;;
76626;SDS011;65519;53.230;10.390;2023-02-05T06:56:50;6.75;;;4.15;;
76626;SDS011;65519;53.230;10.390;2023-02-05T06:59:16;7.73;;;3.63;;
76626;SDS011;65519;53.230;10.390;2023-02-05T07:01:41;5.50;;;4.05;;
76626;SDS011;65519;53.230;10.390;2023-02-05T07:04:06;7.22;;;3.92;;
76626;SDS011;65519;53.230;10.390;2023-02-05T07:06:32;6.05;;;3.65;;
76626;SDS011;65519;53.230;10.390;2023-02-05T07:08:57;6.38;;;3.83;;
76626;SDS011;65519;53.230;10.390;2023-02-05T07:11:23;17.40;;;7.32;;
76626;SDS011;65519;53.230;10.390;2023-02-05T07:13:49;7.20;;;3.85;;
76626;SDS011;65519;53.230;10.390;2023-02-05T07:16:14;7.53;;;3.50;;
76626;SDS011;65519;53.230;10.390;2023-02-05T07:18:40;4.82;;;3.33;;
76626;SDS011;65519;53.230;10.390;2023-02-05T07:21:06;8.00;;;4.43;;
76626;SDS011;65519;53.230;10.390;2023-02-05T07:23:33;8.82;;;3.97;;
76626;SDS011;65519;53.230;10.390;2023-02-05T07:26:06;9.45;;;4.90;;
76626;SDS011;65519;53.230;10.390;2023-02-05T07:28:32;6.82;;;4.13;;
76626;SDS011;65519;53.230;10.390;2023-02-05T07:31:01;10.05;;;4.68;;
76626;SDS011;65519;53.230;10.390;2023-02-05T07:33:31;9.07;;;4.30;;
76626;SDS011;65519;53.230;10.390;2023-02-05T07:35:56;14.02;;;6.55;;
76626;SDS011;65519;53.230;10.390;2023-02-05T07:38:22;9.10;;;4.45;;
76626;SDS011;65519;53.230;10.390;2023-02-05T07:40:49;5.82;;;3.72;;
76626;SDS011;65519;53.230;10.390;2023-02-05T07:43:14;6.05;;;3.90;;
76626;SDS011;65519;53.230;10.390;2023-02-05T07:45:40;7.57;;;4.00;;
76626;SDS011;65519;53.230;10.390;2023-02-05T07:48:05;6.75;;;4.47;;
76626;SDS011;65519;53.230;10.390;2023-02-05T07:50:30;8.10;;;4.57;;
76626;SDS011;65519;53.230;10.390;2023-02-05T07:52:56;7.53;;;4.30;;
76626;SDS011;65519;53.230;10.390;2023-02-05T07:55:21;8.90;;;4.27;;
76626;SDS011;65519;53.230;10.390;2023-02-05T07:57:46;8.33;;;4.00;;
76626;SDS011;65519;53.230;10.390;2023-02-05T08:00:12;8.10;;;4.00;;
76626;SDS011;65519;53.230;10.390;2023-02-05T08:02:37;8.93;;;4.00;;
76626;SDS011;65519;53.230;10.390;2023-02-05T08:05:03;7.03;;;3.70;;
76626;SDS011;65519;53.230;10.390;2023-02-05T08:07:29;9.57;;;4.30;;
76626;SDS011;65519;53.230;10.390;2023-02-05T08:09:54;9.47;;;4.00;;
76626;SDS011;65519;53.230;10.390;2023-02-05T08:12:20;28.85;;;10.73;;
76626;SDS011;65519;53.230;10.390;2023-02-05T08:14:45;11.23;;;6.57;;
76626;SDS011;65519;53.230;10.390;2023-02-05T08:17:10;6.83;;;4.00;;
76626;SDS011;65519;53.230;10.390;2023-02-05T08:19:36;8.40;;;3.53;;
76626;SDS011;65519;53.230;10.390;2023-02-05T08:22:01;7.55;;;3.67;;
76626;SDS011;65519;53.230;10.390;2023-02-05T08:24:27;7.72;;;4.45;;
76626;SDS011;65519;53.230;10.390;2023-02-05T08:26:53;8.38;;;4.28;;
76626;SDS011;65519;53.230;10.390;2023-02-05T08:29:18;12.95;;;4.90;;
76626;SDS011;65519;53.230;10.390;2023-02-05T08:31:43;13.90;;;5.32;;
76626;SDS011;65519;53.230;10.390;2023-02-05T08:34:09;8.05;;;4.15;;
76626;SDS011;65519;53.230;10.390;2023-02-05T08:36:34;9.65;;;4.35;;
76626;SDS011;65519;53.230;10.390;2023-02-05T08:39:00;10.35;;;4.10;;
76626;SDS011;65519;53.230;10.390;2023-02-05T08:41:25;8.57;;;4.72;;
76626;SDS011;65519;53.230;10.390;2023-02-05T08:43:50;6.83;;;4.30;;
76626;SDS011;65519;53.230;10.390;2023-02-05T08:46:19;7.20;;;3.55;;
76626;SDS011;65519;53.230;10.390;2023-02-05T08:48:48;5.60;;;4.03;;
76626;SDS011;65519;53.230;10.390;2023-02-05T08:51:15;7.50;;;5.05;;
76626;SDS011;65519;53.230;10.390;2023-02-05T08:53:41;9.35;;;4.68;;
76626;SDS011;65519;53.230;10.390;2023-02-05T08:56:07;7.97;;;4.47;;
76626;SDS011;65519;53.230;10.390;2023-02-05T08:58:38;11.15;;;5.55;;
76626;SDS011;65519;53.230;10.390;2023-02-05T09:01:11;10.80;;;5.85;;
76626;SDS011;65519;53.230;10.390;2023-02-05T09:03:39;36.28;;;16.60;;
76626;SDS011;65519;53.230;10.390;2023-02-05T09:06:05;7.32;;;5.20;;
76626;SDS011;65519;53.230;10.390;2023-02-05T09:08:35;10.77;;;5.60;;
76626;SDS011;65519;53.230;10.390;2023-02-05T09:11:01;8.65;;;4.53;;
76626;SDS011;65519;53.230;10.390;2023-02-05T09:13:26;7.43;;;4.10;;
76626;SDS011;65519;53.230;10.390;2023-02-05T09:15:52;7.90;;;4.43;;
76626;SDS011;65519;53.230;10.390;2023-02-05T09:18:18;7.05;;;4.40;;
76626;SDS011;65519;53.230;10.390;2023-02-05T09:20:45;6.93;;;4.43;;
76626;SDS011;65519;53.230;10.390;2023-02-05T09:23:13;6.72;;;4.93;;
76626;SDS011;65519;53.230;10.390;2023-02-05T09:25:39;8.23;;;4.95;;
76626;SDS011;65519;53.230;10.390;2023-02-05T09:28:07;6.40;;;4.07;;
76626;SDS011;65519;53.230;10.390;2023-02-05T09:30:43;11.20;;;4.40;;
76626;SDS011;65519;53.230;10.390;2023-02-05T09:33:09;10.48;;;4.72;;
76626;SDS011;65519;53.230;10.390;2023-02-05T09:35:36;6.95;;;4.22;;
76626;SDS011;65519;53.230;10.390;2023-02-05T09:38:02;9.10;;;4.25;;
76626;SDS011;65519;53.230;10.390;2023-02-05T09:51:00;10.10;;;4.30;;
76626;SDS011;65519;53.230;10.390;2023-02-05T09:53:27;10.93;;;4.78;;
76626;SDS011;65519;53.230;10.390;2023-02-05T09:55:59;4.78;;;3.72;;
76626;SDS011;65519;53.230;10.390;2023-02-05T09:58:28;16.45;;;7.55;;
76626;SDS011;65519;53.230;10.390;2023-02-05T10:03:36;7.93;;;4.10;;
76626;SDS011;65519;53.230;10.390;2023-02-05T10:11:09;7.93;;;4.60;;
76626;SDS011;65519;53.230;10.390;2023-02-05T10:13:43;6.50;;;4.20;;
76626;SDS011;65519;53.230;10.390;2023-02-05T10:16:23;8.45;;;4.55;;
76626;SDS011;65519;53.230;10.390;2023-02-05T10:19:16;6.75;;;3.70;;
76626;SDS011;65519;53.230;10.390;2023-02-05T10:22:08;7.00;;;4.32;;
76626;SDS011;65519;53.230;10.390;2023-02-05T10:27:21;6.43;;;4.28;;
76626;SDS011;65519;53.230;10.390;2023-02-05T10:34:46;19.60;;;9.02;;
76626;SDS011;65519;53.230;10.390;2023-02-05T10:37:19;11.55;;;6.05;;
76626;SDS011;65519;53.230;10.390;2023-02-05T10:39:49;10.60;;;5.22;;
76626;SDS011;65519;53.230;10.390;2023-02-05T10:44:48;7.50;;;4.07;;
76626;SDS011;65519;53.230;10.390;2023-02-05T10:52:51;8.80;;;4.28;;
76626;SDS011;65519;53.230;10.390;2023-02-05T10:55:16;11.15;;;5.47;;
76626;SDS011;65519;53.230;10.390;2023-02-05T10:57:42;7.97;;;4.65;;
76626;SDS011;65519;53.230;10.390;2023-02-05T11:02:41;11.23;;;5.32;;
76626;SDS011;65519;53.230;10.390;2023-02-05T11:08:02;11.93;;;5.07;;
76626;SDS011;65519;53.230;10.390;2023-02-05T11:10:29;10.20;;;5.05;;
76626;SDS011;65519;53.230;10.390;2023-02-05T11:13:17;8.90;;;4.93;;
76626;SDS011;65519;53.230;10.390;2023-02-05T11:15:57;12.70;;;6.68;;
76626;SDS011;65519;53.230;10.390;2023-02-05T11:18:35;7.85;;;5.00;;
76626;SDS011;65519;53.230;10.390;2023-02-05T11:21:05;10.05;;;4.95;;
76626;SDS011;65519;53.230;10.390;2023-02-05T11:23:32;10.65;;;5.03;;
76626;SDS011;65519;53.230;10.390;2023-02-05T11:26:20;12.35;;;5.22;;
76626;SDS011;65519;53.230;10.390;2023-02-05T11:28:47;9.90;;;5.22;;
76626;SDS011;65519;53.230;10.390;2023-02-05T11:34:08;11.15;;;5.75;;
76626;SDS011;65519;53.230;10.390;2023-02-05T11:36:50;14.98;;;6.90;;
76626;SDS011;65519;53.230;10.390;2023-02-05T11:39:35;15.55;;;7.80;;
76626;SDS011;65519;53.230;10.390;2023-02-05T11:42:07;10.55;;;5.18;;
76626;SDS011;65519;53.230;10.390;2023-02-05T11:44:50;7.88;;;5.10;;
76626;SDS011;65519;53.230;10.390;2023-02-05T11:49:56;7.57;;;4.50;;
76626;SDS011;65519;53.230;10.390;2023-02-05T11:52:27;7.63;;;4.80;;
76626;SDS011;65519;53.230;10.390;2023-02-05T11:54:56;8.63;;;4.85;;
76626;SDS011;65519;53.230;10.390;2023-02-05T12:02:34;7.75;;;4.60;;
76626;SDS011;65519;53.230;10.390;2023-02-05T12:26:46;8.88;;;4.75;;
76626;SDS011;65519;53.230;10.390;2023-02-05T12:29:21;19.08;;;9.02;;
76626;SDS011;65519;53.230;10.390;2023-02-05T12:32:10;6.93;;;4.57;;
76626;SDS011;65519;53.230;10.390;2023-02-05T12:43:37;11.80;;;5.53;;
76626;SDS011;65519;53.230;10.390;2023-02-05T12:51:18;7.93;;;4.70;;
76626;SDS011;65519;53.230;10.390;2023-02-05T13:02:06;8.07;;;4.50;;
76626;SDS011;65519;53.230;10.390;2023-02-05T13:07:37;10.77;;;4.72;;
76626;SDS011;65519;53.230;10.390;2023-02-05T13:10:13;8.85;;;4.40;;
76626;SDS011;65519;53.230;10.390;2023-02-05T13:12:51;9.35;;;5.38;;
76626;SDS011;65519;53.230;10.390;2023-02-05T13:15:22;10.23;;;4.88;;
76626;SDS011;65519;53.230;10.390;2023-02-05T13:18:05;8.50;;;5.03;;
76626;SDS011;65519;53.230;10.390;2023-02-05T13:20:40;10.15;;;5.22;;
76626;SDS011;65519;53.230;10.390;2023-02-05T13:23:27;10.15;;;5.03;;
76626;SDS011;65519;53.230;10.390;2023-02-05T13:26:14;7.28;;;4.60;;
76626;SDS011;65519;53.230;10.390;2023-02-05T13:29:04;8.63;;;4.70;;
76626;SDS011;65519;53.230;10.390;2023-02-05T13:31:36;7.15;;;4.22;;
76626;SDS011;65519;53.230;10.390;2023-02-05T13:34:04;8.25;;;4.60;;
76626;SDS011;65519;53.230;10.390;2023-02-05T13:37:10;8.35;;;4.35;;
76626;SDS011;65519;53.230;10.390;2023-02-05T13:39:31;9.38;;;4.47;;
76626;SDS011;65519;53.230;10.390;2023-02-05T13:45:02;10.35;;;5.35;;
76626;SDS011;65519;53.230;10.390;2023-02-05T13:47:45;9.13;;;4.97;;
76626;SDS011;65519;53.230;10.390;2023-02-05T13:58:50;5.78;;;3.80;;
76626;SDS011;65519;53.230;10.390;2023-02-05T14:01:23;7.47;;;4.13;;
76626;SDS011;65519;53.230;10.390;2023-02-05T14:07:21;6.05;;;4.20;;
76626;SDS011;65519;53.230;10.390;2023-02-05T14:09:43;6.10;;;4.15;;
76626;SDS011;65519;53.230;10.390;2023-02-05T14:12:21;8.13;;;4.80;;
76626;SDS011;65519;53.230;10.390;2023-02-05T14:20:28;10.30;;;5.47;;
76626;SDS011;65519;53.230;10.390;2023-02-05T14:28:32;8.65;;;4.88;;
76626;SDS011;65519;53.230;10.390;2023-02-05T14:30:57;11.43;;;5.35;;
76626;SDS011;65519;53.230;10.390;2023-02-05T14:33:29;9.90;;;5.38;;
76626;SDS011;65519;53.230;10.390;2023-02-05T14:38:39;8.55;;;5.30;;
76626;SDS011;65519;53.230;10.390;2023-02-05T14:41:13;8.57;;;5.15;;
76626;SDS011;65519;53.230;10.390;2023-02-05T14:46:30;10.15;;;5.20;;
76626;SDS011;65519;53.230;10.390;2023-02-05T14:49:21;11.13;;;5.40;;
76626;SDS011;65519;53.230;10.390;2023-02-05T14:51:48;9.70;;;5.20;;
76626;SDS011;65519;53.230;10.390;2023-02-05T14:54:23;8.88;;;4.78;;
76626;SDS011;65519;53.230;10.390;2023-02-05T14:56:52;10.48;;;5.63;;
76626;SDS011;65519;53.230;10.390;2023-02-05T15:07:51;9.38;;;5.13;;
76626;SDS011;65519;53.230;10.390;2023-02-05T15:10:45;9.73;;;4.93;;
76626;SDS011;65519;53.230;10.390;2023-02-05T15:13:19;15.80;;;4.30;;
76626;SDS011;65519;53.230;10.390;2023-02-05T15:23:58;10.77;;;4.97;;
76626;SDS011;65519;53.230;10.390;2023-02-05T15:29:11;7.13;;;4.10;;
76626;SDS011;65519;53.230;10.390;2023-02-05T15:31:39;8.85;;;4.43;;
76626;SDS011;65519;53.230;10.390;2023-02-05T15:37:35;10.10;;;4.85;;
76626;SDS011;65519;53.230;10.390;2023-02-05T15:40:08;22.05;;;11.38;;
76626;SDS011;65519;53.230;10.390;2023-02-05T15:42:52;13.90;;;6.88;;
76626;SDS011;65519;53.230;10.390;2023-02-05T15:50:52;8.75;;;4.50;;
76626;SDS011;65519;53.230;10.390;2023-02-05T15:56:12;11.80;;;5.47;;
76626;SDS011;65519;53.230;10.390;2023-02-05T15:58:49;11.95;;;6.28;;
76626;SDS011;65519;53.230;10.390;2023-02-05T16:01:39;12.18;;;5.53;;
76626;SDS011;65519;53.230;10.390;2023-02-05T16:07:01;24.77;;;10.85;;
76626;SDS011;65519;53.230;10.390;2023-02-05T16:09:44;10.63;;;5.60;;
76626;SDS011;65519;53.230;10.390;2023-02-05T16:12:14;10.73;;;6.10;;
76626;SDS011;65519;53.230;10.390;2023-02-05T16:14:40;10.10;;;5.75;;
76626;SDS011;65519;53.230;10.390;2023-02-05T16:27:48;9.30;;;5.88;;
76626;SDS011;65519;53.230;10.390;2023-02-05T16:30:18;33.10;;;14.25;;
76626;SDS011;65519;53.230;10.390;2023-02-05T16:32:44;11.63;;;5.70;;
76626;SDS011;65519;53.230;10.390;2023-02-05T16:37:52;9.35;;;5.88;;
76626;SDS011;65519;53.230;10.390;2023-02-05T16:40:40;10.57;;;5.30;;
76626;SDS011;65519;53.230;10.390;2023-02-05T16:45:41;12.73;;;6.38;;
76626;SDS011;65519;53.230;10.390;2023-02-05T16:51:54;39.40;;;19.25;;
76626;SDS011;65519;53.230;10.390;2023-02-05T16:54:01;21.15;;;11.40;;
76626;SDS011;65519;53.230;10.390;2023-02-05T17:02:18;14.40;;;7.72;;
76626;SDS011;65519;53.230;10.390;2023-02-05T17:04:50;15.00;;;8.60;;
76626;SDS011;65519;53.230;10.390;2023-02-05T17:07:18;13.18;;;7.95;;
76626;SDS011;65519;53.230;10.390;2023-02-05T17:14:53;17.65;;;10.00;;
76626;SDS011;65519;53.230;10.390;2023-02-05T17:17:22;19.10;;;8.77;;
76626;SDS011;65519;53.230;10.390;2023-02-05T17:22:39;12.95;;;7.70;;
76626;SDS011;65519;53.230;10.390;2023-02-05T17:25:49;17.17;;;8.45;;
76626;SDS011;65519;53.230;10.390;2023-02-05T17:28:31;15.43;;;8.63;;
76626;SDS011;65519;53.230;10.390;2023-02-05T17:31:02;24.15;;;10.80;;
76626;SDS011;65519;53.230;10.390;2023-02-05T17:33:27;17.77;;;10.48;;
76626;SDS011;65519;53.230;10.390;2023-02-05T17:35:53;19.02;;;10.13;;
76626;SDS011;65519;53.230;10.390;2023-02-05T17:38:18;18.88;;;8.93;;
76626;SDS011;65519;53.230;10.390;2023-02-05T17:40:47;20.90;;;10.65;;
76626;SDS011;65519;53.230;10.390;2023-02-05T17:43:13;13.85;;;8.98;;
76626;SDS011;65519;53.230;10.390;2023-02-05T17:45:39;15.77;;;9.00;;
76626;SDS011;65519;53.230;10.390;2023-02-05T17:48:06;14.68;;;7.80;;
76626;SDS011;65519;53.230;10.390;2023-02-05T17:50:32;14.80;;;7.60;;
76626;SDS011;65519;53.230;10.390;2023-02-05T17:52:59;14.45;;;7.55;;
76626;SDS011;65519;53.230;10.390;2023-02-05T17:55:25;12.13;;;8.10;;
76626;SDS011;65519;53.230;10.390;2023-02-05T17:57:50;29.07;;;13.00;;
76626;SDS011;65519;53.230;10.390;2023-02-05T18:00:21;46.33;;;19.77;;
76626;SDS011;65519;53.230;10.390;2023-02-05T18:02:48;15.35;;;9.43;;
76626;SDS011;65519;53.230;10.390;2023-02-05T18:05:14;10.98;;;7.32;;
76626;SDS011;65519;53.230;10.390;2023-02-05T18:10:14;12.07;;;7.18;;
76626;SDS011;65519;53.230;10.390;2023-02-05T18:12:42;14.48;;;8.00;;
76626;SDS011;65519;53.230;10.390;2023-02-05T18:15:08;14.20;;;8.32;;
76626;SDS011;65519;53.230;10.390;2023-02-05T18:17:34;16.05;;;8.27;;
76626;SDS011;65519;53.230;10.390;2023-02-05T18:19:59;35.58;;;15.93;;
76626;SDS011;65519;53.230;10.390;2023-02-05T18:22:25;26.05;;;13.15;;
76626;SDS011;65519;53.230;10.390;2023-02-05T18:24:50;19.20;;;9.38;;
76626;SDS011;65519;53.230;10.390;2023-02-05T18:27:15;13.23;;;8.07;;
76626;SDS011;65519;53.230;10.390;2023-02-05T18:29:41;16.38;;;8.57;;
76626;SDS011;65519;53.230;10.390;2023-02-05T18:32:06;12.75;;;8.15;;
76626;SDS011;65519;53.230;10.390;2023-02-05T18:34:32;19.80;;;9.75;;